Nickerson, Kansas
Current Conditions -  °F | °C
As of 6:52 PM on Friday 24 Oct 2014 (Local Time) from KHUT Reporting Station
Clear Clear  
Wind Chill: 73°   Ceiling: Unl
Heat Index: 73°   Visibility: 10mi
Dew Point: 60°   Wind: 8mph
Humidity: 64%   Direction: 180°S
Pressure: 29.98"   Gusts: NA
Location:  38.15°N, 98.08°W
Report Text: KHUT 242352Z 18007KT 10SM CLR 23/16 A2998 RMK AO2 SLP137 T02280156 10294 20228 51002
Loading
Personal Weather Stations






























Interactive Weather Map
Tropical Storm Tracking
New forecast layout! Learn more

10-Day Weather Forecast

Advertisements
Track Severe Weather on mobile